createdAt,value
2019-03-12T00:02:27.075Z,50.85
2019-03-12T00:04:54.271Z,50.90
2019-03-12T00:07:21.433Z,50.87
2019-03-12T00:09:48.667Z,51.10
2019-03-12T00:12:15.882Z,50.89
2019-03-12T00:14:43.150Z,51.08
2019-03-12T00:17:10.355Z,51.15
2019-03-12T00:19:37.544Z,50.93
2019-03-12T00:22:04.739Z,50.92
2019-03-12T00:24:32.075Z,51.09
2019-03-12T00:26:59.252Z,51.24
2019-03-12T00:29:26.498Z,50.96
2019-03-12T00:31:53.715Z,50.95
2019-03-12T00:34:20.952Z,51.01
2019-03-12T00:36:48.284Z,51.05
2019-03-12T00:39:15.495Z,51.14
2019-03-12T00:41:42.696Z,51.17
2019-03-12T00:44:09.949Z,51.33
2019-03-12T00:46:37.199Z,51.10
2019-03-12T00:49:04.397Z,51.04
2019-03-12T00:51:31.621Z,51.07
2019-03-12T00:53:58.823Z,51.15
2019-03-12T00:56:26.079Z,51.14
2019-03-12T00:58:53.394Z,51.11
2019-03-12T01:01:20.585Z,51.66
2019-03-12T01:03:47.857Z,52.03
2019-03-12T01:06:15.087Z,51.75
2019-03-12T01:08:42.378Z,52.03
2019-03-12T01:11:09.624Z,51.77
2019-03-12T01:13:36.924Z,51.57
2019-03-12T01:16:04.111Z,51.36
2019-03-12T01:18:31.461Z,51.31
2019-03-12T01:20:58.642Z,51.41
2019-03-12T01:23:25.862Z,51.33
2019-03-12T01:25:53.119Z,51.33
2019-03-12T01:28:20.339Z,51.23
2019-03-12T01:30:47.566Z,51.25
2019-03-12T01:33:14.756Z,52.45
2019-03-12T01:35:42.080Z,53.33
2019-03-12T01:38:09.380Z,52.14
2019-03-12T01:40:36.780Z,51.96
2019-03-12T01:43:04.050Z,51.85
2019-03-12T01:45:31.338Z,51.83
2019-03-12T01:47:58.647Z,51.79
2019-03-12T01:50:25.986Z,51.68
2019-03-12T01:52:53.319Z,51.74
2019-03-12T01:55:20.636Z,51.66
2019-03-12T01:57:47.991Z,51.64
2019-03-12T02:00:15.579Z,51.59
2019-03-12T02:02:42.770Z,51.56
2019-03-12T02:05:10.137Z,51.59
2019-03-12T02:07:37.433Z,51.54
2019-03-12T02:10:04.731Z,51.46
2019-03-12T02:12:32.007Z,51.48
2019-03-12T02:14:59.224Z,51.52
2019-03-12T02:17:26.552Z,51.51
2019-03-12T02:19:53.770Z,51.54
2019-03-12T02:22:20.959Z,51.48
2019-03-12T02:24:52.572Z,51.45
2019-03-12T02:27:17.314Z,51.43
2019-03-12T02:29:44.530Z,51.42
2019-03-12T02:32:11.792Z,51.41
2019-03-12T02:34:39.025Z,51.40
2019-03-12T02:37:06.272Z,51.40
2019-03-12T02:39:33.510Z,51.40
2019-03-12T02:42:00.751Z,51.35
2019-03-12T02:44:28.142Z,51.27
2019-03-12T02:46:55.408Z,51.27
2019-03-12T02:49:22.573Z,51.26
2019-03-12T02:51:49.782Z,51.27
2019-03-12T02:54:16.963Z,51.26
2019-03-12T02:56:44.267Z,51.33
2019-03-12T02:59:11.496Z,51.28
2019-03-12T03:01:38.727Z,51.29
2019-03-12T03:04:05.894Z,51.32
2019-03-12T03:06:52.815Z,51.25
2019-03-12T03:09:19.991Z,51.24
2019-03-12T03:11:50.672Z,51.33
2019-03-12T03:14:36.650Z,51.35
2019-03-12T03:17:04.213Z,51.27
2019-03-12T03:19:31.615Z,51.33
2019-03-12T03:21:58.832Z,51.29
2019-03-12T03:24:26.051Z,51.38
2019-03-12T03:26:53.238Z,51.32
2019-03-12T03:29:20.494Z,51.69
2019-03-12T03:31:47.735Z,51.41
2019-03-12T03:34:14.966Z,51.47
2019-03-12T03:36:42.224Z,51.55
2019-03-12T03:39:09.499Z,51.56
2019-03-12T03:41:36.722Z,51.55
2019-03-12T03:44:03.912Z,51.43
2019-03-12T03:46:31.125Z,51.42
2019-03-12T03:48:58.283Z,51.40
2019-03-12T03:51:25.555Z,51.37
2019-03-12T03:53:52.741Z,51.40
2019-03-12T03:56:19.977Z,51.42
2019-03-12T03:58:47.198Z,51.42
2019-03-12T04:01:14.427Z,51.43
2019-03-12T04:03:41.656Z,51.44
2019-03-12T04:06:08.844Z,51.51
2019-03-12T04:08:36.072Z,51.51
2019-03-12T04:11:03.263Z,51.55
2019-03-12T04:13:30.471Z,51.57
2019-03-12T04:15:57.690Z,51.59
2019-03-12T04:18:25.029Z,51.53
2019-03-12T04:20:52.219Z,51.44
2019-03-12T04:23:19.419Z,51.44
2019-03-12T04:25:46.692Z,51.61
2019-03-12T04:28:14.081Z,51.47
2019-03-12T04:30:41.267Z,51.48
2019-03-12T04:33:31.237Z,51.51
2019-03-12T04:35:58.516Z,51.78
2019-03-12T04:38:25.870Z,51.54
2019-03-12T04:40:53.060Z,51.58
2019-03-12T04:43:20.393Z,51.58
2019-03-12T04:45:47.714Z,51.53
2019-03-12T04:48:14.909Z,51.41
2019-03-12T04:50:42.139Z,51.48
2019-03-12T04:53:09.355Z,51.43
2019-03-12T04:55:36.549Z,51.40
2019-03-12T04:58:03.813Z,51.49
2019-03-12T05:00:31.023Z,51.49
2019-03-12T05:02:58.216Z,51.51
2019-03-12T05:05:25.454Z,51.50
2019-03-12T05:07:52.720Z,51.43
2019-03-12T05:10:19.952Z,51.47
2019-03-12T05:12:47.152Z,51.51
2019-03-12T05:15:14.322Z,51.41
2019-03-12T05:17:41.792Z,51.46
2019-03-12T05:20:10.938Z,51.49
2019-03-12T05:22:40.135Z,51.47
2019-03-12T05:25:09.000Z,53.47
2019-03-12T05:27:36.389Z,53.49
2019-03-12T05:30:06.928Z,53.55
2019-03-12T05:32:34.224Z,53.07
2019-03-12T05:35:01.540Z,53.06
2019-03-12T05:37:28.874Z,53.06
2019-03-12T05:39:56.178Z,53.06
2019-03-12T05:42:23.518Z,52.38
2019-03-12T05:44:50.858Z,52.12
2019-03-12T05:47:21.004Z,51.96
2019-03-12T05:49:48.702Z,51.85
2019-03-12T05:52:16.015Z,51.83
2019-03-12T05:54:43.352Z,51.74
2019-03-12T05:57:10.626Z,51.67
2019-03-12T05:59:37.867Z,51.56
2019-03-12T06:02:05.086Z,51.08
2019-03-12T06:04:32.325Z,50.60
2019-03-12T06:06:59.531Z,50.22
2019-03-12T06:09:30.378Z,49.92
2019-03-12T06:11:55.841Z,50.61
2019-03-12T06:14:23.123Z,50.03
2019-03-12T06:16:50.339Z,49.95
2019-03-12T06:19:17.540Z,49.92
2019-03-12T06:21:44.876Z,49.96
2019-03-12T06:24:12.086Z,50.84
2019-03-12T06:26:44.758Z,50.30
2019-03-12T06:29:12.430Z,50.52
2019-03-12T06:32:14.658Z,50.52
2019-03-12T06:34:49.482Z,50.49
2019-03-12T06:37:40.027Z,50.54
2019-03-12T06:40:20.717Z,50.54
2019-03-12T06:43:04.272Z,50.59
2019-03-12T06:45:51.368Z,50.71
2019-03-12T06:48:50.016Z,50.60
2019-03-12T06:51:32.096Z,51.34
2019-03-12T06:54:08.561Z,50.79
2019-03-12T06:56:57.984Z,50.77
2019-03-12T06:59:56.717Z,50.58
2019-03-12T07:02:32.123Z,50.33
2019-03-12T07:05:11.719Z,50.35
2019-03-12T07:07:58.557Z,50.36
2019-03-12T07:10:45.334Z,50.16
2019-03-12T07:13:21.176Z,50.09
2019-03-12T07:16:14.099Z,50.04
2019-03-12T07:19:03.506Z,50.10
2019-03-12T07:21:59.099Z,50.13
2019-03-12T07:24:47.372Z,50.17
2019-03-12T07:27:34.147Z,50.47
2019-03-12T07:30:25.856Z,50.44
2019-03-12T07:33:11.417Z,50.43
2019-03-12T07:36:01.065Z,50.35
2019-03-12T07:38:47.946Z,50.27
2019-03-12T07:41:49.938Z,50.17
2019-03-12T07:44:32.190Z,50.04
2019-03-12T07:47:16.886Z,49.92
2019-03-12T07:50:02.519Z,49.83
2019-03-12T07:52:48.219Z,49.77
2019-03-12T07:55:37.972Z,49.70
2019-03-12T07:58:35.298Z,49.55
2019-03-12T08:01:10.561Z,49.51
2019-03-12T08:03:59.074Z,49.43
2019-03-12T08:06:52.168Z,49.33
2019-03-12T08:09:50.938Z,49.18
2019-03-12T08:12:34.208Z,49.06
2019-03-12T08:15:23.111Z,48.95
2019-03-12T08:18:12.032Z,48.76
2019-03-12T08:20:50.714Z,48.62
2019-03-12T08:24:05.980Z,48.56
2019-03-12T08:26:40.802Z,48.58
2019-03-12T08:29:27.675Z,48.56
2019-03-12T08:32:20.334Z,48.51
2019-03-12T08:35:09.826Z,48.44
2019-03-12T08:37:52.892Z,48.34
2019-03-12T08:40:51.909Z,48.27
2019-03-12T08:43:34.144Z,48.22
2019-03-12T08:46:29.855Z,48.19
2019-03-12T08:49:13.953Z,48.19
2019-03-12T08:51:49.577Z,48.21
2019-03-12T08:54:54.270Z,48.13
2019-03-12T08:57:25.073Z,48.12
2019-03-12T09:00:18.036Z,48.05
2019-03-12T09:02:53.017Z,48.04
2019-03-12T09:05:47.094Z,48.04
2019-03-12T09:08:33.674Z,47.97
2019-03-12T09:11:26.391Z,47.97
2019-03-12T09:14:17.189Z,48.00
2019-03-12T09:17:02.400Z,48.05
2019-03-12T09:19:57.602Z,47.95
2019-03-12T09:22:56.239Z,47.80
2019-03-12T09:25:41.575Z,47.75
2019-03-12T09:28:35.803Z,47.65
2019-03-12T09:31:25.480Z,47.58
2019-03-12T09:34:02.564Z,47.57
2019-03-12T09:36:41.851Z,47.42
2019-03-12T09:39:28.652Z,47.21
2019-03-12T09:42:16.670Z,47.04
2019-03-12T09:45:24.706Z,47.00
2019-03-12T09:48:11.464Z,46.95
2019-03-12T09:50:46.926Z,46.83
2019-03-12T09:53:38.136Z,46.83
2019-03-12T09:56:24.293Z,46.79
2019-03-12T09:59:29.112Z,46.66
2019-03-12T10:02:03.261Z,46.51
2019-03-12T10:04:53.166Z,46.51
2019-03-12T10:07:40.130Z,46.50
2019-03-12T10:10:33.390Z,46.47
2019-03-12T10:13:17.043Z,46.44
2019-03-12T10:16:02.468Z,46.55
2019-03-12T10:18:48.206Z,46.62
2019-03-12T10:21:27.223Z,46.57
2019-03-12T10:24:32.446Z,46.45
2019-03-12T10:27:07.116Z,46.33
2019-03-12T10:29:55.268Z,46.46
2019-03-12T10:32:36.822Z,46.51
2019-03-12T10:35:26.359Z,46.55
2019-03-12T10:38:07.693Z,46.61
2019-03-12T10:40:41.075Z,46.68
2019-03-12T10:43:31.141Z,46.60
2019-03-12T10:46:15.551Z,46.62
2019-03-12T10:48:43.073Z,46.66
2019-03-12T10:51:12.877Z,46.64
2019-03-12T10:53:39.380Z,46.69
2019-03-12T10:56:06.715Z,46.65
2019-03-12T10:58:33.963Z,46.71
2019-03-12T11:01:01.195Z,46.70
2019-03-12T11:03:28.495Z,46.75
2019-03-12T11:05:55.961Z,46.94
2019-03-12T11:08:24.850Z,46.99
2019-03-12T11:10:52.203Z,46.91
2019-03-12T11:13:19.869Z,46.81
2019-03-12T11:15:54.361Z,46.88
2019-03-12T11:18:21.726Z,46.94
2019-03-12T11:20:49.268Z,46.91
2019-03-12T11:23:16.693Z,46.83
2019-03-12T11:25:44.912Z,46.84
2019-03-12T11:28:12.359Z,46.75
2019-03-12T11:30:40.385Z,46.74
2019-03-12T11:33:07.940Z,46.64
2019-03-12T11:35:39.399Z,46.63
2019-03-12T11:38:04.506Z,46.56
2019-03-12T11:40:43.832Z,46.37
2019-03-12T11:43:11.166Z,46.33
2019-03-12T11:45:38.989Z,46.34
2019-03-12T11:48:06.493Z,46.35
2019-03-12T11:50:33.724Z,47.02
2019-03-12T11:53:01.362Z,47.34
2019-03-12T11:55:28.938Z,47.29
2019-03-12T11:57:56.182Z,47.09
2019-03-12T12:00:26.921Z,46.96
2019-03-12T12:03:00.452Z,46.94
2019-03-12T12:05:28.285Z,46.91
2019-03-12T12:07:55.579Z,46.81
2019-03-12T12:10:22.822Z,46.70
2019-03-12T12:12:51.883Z,46.64
2019-03-12T12:15:19.084Z,46.64
2019-03-12T12:17:49.207Z,46.61
2019-03-12T12:20:28.374Z,46.72
2019-03-12T12:22:44.543Z,46.70
2019-03-12T12:25:12.515Z,46.71
2019-03-12T12:27:39.756Z,46.77
2019-03-12T12:30:08.763Z,46.82
2019-03-12T12:32:36.140Z,46.86
2019-03-12T12:35:04.064Z,46.91
2019-03-12T12:37:31.244Z,46.94
2019-03-12T12:39:58.512Z,46.97
2019-03-12T12:42:25.713Z,46.94
2019-03-12T12:44:52.915Z,47.00
2019-03-12T12:47:20.136Z,46.98
2019-03-12T12:49:47.383Z,47.01
2019-03-12T12:52:14.698Z,47.01
2019-03-12T12:54:42.040Z,47.09
2019-03-12T12:57:09.249Z,47.06
2019-03-12T12:59:36.451Z,47.06
2019-03-12T13:02:03.729Z,47.07
2019-03-12T13:04:30.999Z,47.02
2019-03-12T13:06:58.313Z,47.01
2019-03-12T13:09:25.529Z,47.03
2019-03-12T13:11:52.726Z,47.01
2019-03-12T13:14:20.042Z,46.96
2019-03-12T13:16:47.200Z,47.04
2019-03-12T13:19:14.411Z,47.01
2019-03-12T13:21:41.622Z,47.02
2019-03-12T13:24:08.944Z,47.00
2019-03-12T13:26:36.148Z,47.00
2019-03-12T13:29:03.371Z,47.10
2019-03-12T13:31:30.750Z,47.11
2019-03-12T13:33:58.222Z,47.04
2019-03-12T13:36:25.481Z,47.00
2019-03-12T13:38:52.926Z,47.05
2019-03-12T13:41:20.283Z,47.06
2019-03-12T13:43:47.955Z,47.11
2019-03-12T13:46:15.203Z,47.05
2019-03-12T13:48:42.405Z,47.13
2019-03-12T13:51:09.983Z,47.15
2019-03-12T13:53:37.324Z,47.08
2019-03-12T13:56:04.596Z,47.10
2019-03-12T13:58:31.822Z,47.09
2019-03-12T14:00:59.015Z,47.14
2019-03-12T14:03:26.352Z,47.25
2019-03-12T14:05:53.562Z,47.02
2019-03-12T14:08:20.752Z,47.04
2019-03-12T14:10:48.116Z,47.04
2019-03-12T14:13:15.352Z,47.00
2019-03-12T14:15:42.601Z,46.95
2019-03-12T14:18:09.771Z,46.83
2019-03-12T14:20:41.710Z,46.93
2019-03-12T14:23:09.411Z,47.01
2019-03-12T14:25:36.622Z,47.05
2019-03-12T14:28:03.932Z,46.89
2019-03-12T14:30:31.140Z,46.72
2019-03-12T14:32:58.391Z,46.63
2019-03-12T14:35:26.294Z,46.64
2019-03-12T14:37:53.649Z,46.62
2019-03-12T14:40:20.826Z,46.54
2019-03-12T14:42:48.008Z,46.59
2019-03-12T14:45:23.240Z,46.60
2019-03-12T14:47:50.448Z,46.53
2019-03-12T14:50:17.824Z,46.59
2019-03-12T14:52:47.645Z,46.53
2019-03-12T14:55:14.903Z,46.48
2019-03-12T14:57:42.231Z,46.52
2019-03-12T15:00:16.375Z,46.56
2019-03-12T15:02:43.569Z,46.55
2019-03-12T15:05:10.870Z,46.38
2019-03-12T15:07:38.077Z,46.40
2019-03-12T15:10:06.179Z,46.44
2019-03-12T15:12:33.386Z,46.41
2019-03-12T15:15:00.696Z,46.38
2019-03-12T15:17:27.874Z,46.33
2019-03-12T15:19:55.181Z,46.34
2019-03-12T15:22:22.415Z,46.27
2019-03-12T15:24:49.580Z,46.25
2019-03-12T15:27:16.836Z,46.32
2019-03-12T15:29:43.995Z,46.33
2019-03-12T15:32:11.299Z,46.33
2019-03-12T15:34:38.546Z,46.36
2019-03-12T15:37:05.792Z,46.31
2019-03-12T15:39:33.017Z,46.35
2019-03-12T15:42:00.310Z,46.32
2019-03-12T15:44:27.507Z,46.27
2019-03-12T15:46:54.700Z,46.24
2019-03-12T15:49:21.914Z,46.27
2019-03-12T15:51:49.213Z,46.29
2019-03-12T15:54:16.439Z,46.29
2019-03-12T15:56:43.771Z,46.28
2019-03-12T15:59:11.130Z,46.29
2019-03-12T16:01:38.306Z,46.28
2019-03-12T16:04:05.577Z,46.30
2019-03-12T16:06:32.771Z,46.35
2019-03-12T16:09:00.074Z,46.46
2019-03-12T16:11:31.130Z,46.43
2019-03-12T16:13:57.260Z,46.49
2019-03-12T16:16:24.471Z,46.44
2019-03-12T16:18:51.692Z,46.41
2019-03-12T16:21:18.992Z,46.39
2019-03-12T16:23:46.124Z,46.40
2019-03-12T16:26:13.335Z,46.44
2019-03-12T16:28:40.518Z,46.46
2019-03-12T16:31:07.734Z,46.45
2019-03-12T16:33:34.996Z,46.40
2019-03-12T16:36:02.383Z,46.42
2019-03-12T16:38:29.617Z,46.44
2019-03-12T16:40:56.813Z,46.42
2019-03-12T16:43:24.018Z,46.45
2019-03-12T16:45:51.205Z,46.40
2019-03-12T16:48:18.431Z,46.39
2019-03-12T16:50:45.727Z,46.39
2019-03-12T16:53:12.909Z,46.41
2019-03-12T16:55:40.221Z,46.43
2019-03-12T16:58:07.407Z,46.37
2019-03-12T17:00:35.109Z,46.40
2019-03-12T17:03:02.334Z,46.45
2019-03-12T17:05:29.774Z,46.46
2019-03-12T17:07:56.955Z,46.41
2019-03-12T17:10:24.215Z,46.40
2019-03-12T17:12:51.509Z,46.44
2019-03-12T17:15:18.766Z,46.48
2019-03-12T17:17:46.108Z,46.53
2019-03-12T17:20:14.296Z,46.52
2019-03-12T17:22:41.684Z,46.60
2019-03-12T17:25:09.412Z,46.78
2019-03-12T17:27:36.774Z,46.78
2019-03-12T17:30:05.860Z,46.92
2019-03-12T17:32:35.112Z,46.87
2019-03-12T17:35:04.871Z,47.12
2019-03-12T17:37:32.393Z,47.02
2019-03-12T17:40:03.963Z,47.43
2019-03-12T17:42:31.282Z,47.54
2019-03-12T17:44:58.498Z,47.94
2019-03-12T17:47:25.966Z,47.86
2019-03-12T17:49:53.300Z,47.47
2019-03-12T17:52:20.609Z,47.86
2019-03-12T17:54:48.139Z,47.76
2019-03-12T17:57:15.420Z,47.71
2019-03-12T17:59:42.678Z,47.60
2019-03-12T18:02:10.431Z,47.53
2019-03-12T18:04:37.593Z,47.70
2019-03-12T18:07:04.887Z,47.47
2019-03-12T18:09:32.172Z,47.32
2019-03-12T18:11:59.775Z,47.54
2019-03-12T18:14:27.005Z,47.46
2019-03-12T18:16:54.304Z,47.38
2019-03-12T18:19:21.504Z,47.49
2019-03-12T18:21:48.763Z,47.30
2019-03-12T18:24:15.985Z,47.26
2019-03-12T18:26:43.316Z,47.31
2019-03-12T18:29:10.542Z,47.47
2019-03-12T18:31:38.009Z,47.45
2019-03-12T18:34:05.230Z,47.33
2019-03-12T18:36:32.404Z,47.34
2019-03-12T18:39:08.232Z,47.39
2019-03-12T18:41:39.369Z,47.71
2019-03-12T18:44:06.793Z,47.95
2019-03-12T18:46:34.097Z,47.50
2019-03-12T18:49:01.478Z,47.56
2019-03-12T18:51:29.397Z,47.64
2019-03-12T18:53:58.191Z,47.65
2019-03-12T18:56:25.541Z,47.85
2019-03-12T18:58:52.905Z,47.74
2019-03-12T19:01:20.266Z,47.79
2019-03-12T19:03:47.656Z,47.85
2019-03-12T19:06:14.921Z,47.85
2019-03-12T19:08:48.081Z,47.97
2019-03-12T19:11:12.855Z,47.86
2019-03-12T19:13:40.975Z,47.94
2019-03-12T19:16:08.221Z,47.79
2019-03-12T19:18:35.844Z,47.97
2019-03-12T19:21:03.098Z,48.15
2019-03-12T19:23:30.265Z,48.38
2019-03-12T19:25:57.465Z,48.33
2019-03-12T19:28:24.713Z,47.88
2019-03-12T19:30:54.353Z,47.82
2019-03-12T19:33:22.757Z,47.95
2019-03-12T19:35:49.930Z,48.04
2019-03-12T19:38:17.250Z,47.87
2019-03-12T19:40:45.179Z,47.87
2019-03-12T19:43:15.518Z,47.91
2019-03-12T19:45:43.893Z,48.07
2019-03-12T19:48:15.061Z,48.20
2019-03-12T19:50:42.654Z,48.25
2019-03-12T19:53:09.853Z,48.25
2019-03-12T19:55:39.810Z,48.28
2019-03-12T19:58:07.212Z,48.42
2019-03-12T20:00:34.626Z,48.61
2019-03-12T20:03:10.710Z,48.47
2019-03-12T20:05:31.164Z,48.68
2019-03-12T20:07:58.480Z,48.66
2019-03-12T20:11:03.539Z,48.68
2019-03-12T20:14:07.102Z,48.87
2019-03-12T20:17:19.079Z,48.28
2019-03-12T20:20:23.789Z,48.18
2019-03-12T20:23:57.193Z,48.04
2019-03-12T20:27:21.911Z,48.22
2019-03-12T20:30:16.836Z,48.20
2019-03-12T20:33:31.142Z,48.51
2019-03-12T20:36:39.139Z,48.50
2019-03-12T20:39:53.128Z,48.36
2019-03-12T20:42:56.284Z,48.35
2019-03-12T20:45:54.722Z,48.20
2019-03-12T20:49:11.503Z,48.10
2019-03-12T20:52:48.114Z,48.13
2019-03-12T20:56:08.622Z,48.05
2019-03-12T20:59:12.833Z,48.15
2019-03-12T21:02:06.466Z,48.25
2019-03-12T21:05:23.708Z,48.27
2019-03-12T21:08:31.162Z,48.14
2019-03-12T21:11:44.885Z,48.32
2019-03-12T21:15:04.701Z,48.54
2019-03-12T21:18:03.227Z,48.39
2019-03-12T21:21:01.481Z,48.45
2019-03-12T21:23:50.605Z,49.17
2019-03-12T21:26:52.263Z,49.21
2019-03-12T21:29:47.166Z,49.14
2019-03-12T21:32:15.606Z,49.07
2019-03-12T21:34:42.842Z,49.31
2019-03-12T21:37:10.123Z,49.47
2019-03-12T21:39:37.445Z,48.96
2019-03-12T21:42:04.904Z,48.78
2019-03-12T21:44:32.362Z,48.78
2019-03-12T21:46:59.699Z,48.51
2019-03-12T21:49:27.069Z,48.70
2019-03-12T21:51:54.263Z,48.76
2019-03-12T21:54:21.472Z,48.69
2019-03-12T21:56:48.690Z,48.83
2019-03-12T21:59:15.980Z,48.82
2019-03-12T22:01:43.191Z,48.87
2019-03-12T22:04:10.375Z,48.74
2019-03-12T22:06:37.609Z,48.58
2019-03-12T22:09:05.346Z,48.98
2019-03-12T22:11:32.527Z,48.65
2019-03-12T22:13:59.696Z,48.53
2019-03-12T22:16:26.930Z,48.71
2019-03-12T22:18:54.267Z,48.63
2019-03-12T22:21:27.723Z,48.71
2019-03-12T22:23:55.208Z,48.58
2019-03-12T22:26:22.436Z,48.61
2019-03-12T22:28:49.639Z,48.53
2019-03-12T22:31:16.808Z,48.49
2019-03-12T22:33:44.023Z,48.40
2019-03-12T22:36:11.370Z,48.55
2019-03-12T22:38:38.658Z,48.87
2019-03-12T22:41:05.868Z,49.07
2019-03-12T22:43:33.080Z,48.90
2019-03-12T22:46:00.312Z,48.76
2019-03-12T22:48:27.563Z,48.79
2019-03-12T22:50:54.728Z,49.17
2019-03-12T22:53:21.936Z,49.14
2019-03-12T22:55:49.132Z,48.93
2019-03-12T22:58:16.347Z,48.84
2019-03-12T23:00:44.198Z,48.88
2019-03-12T23:03:11.394Z,49.04
2019-03-12T23:05:38.639Z,49.08
2019-03-12T23:08:05.830Z,49.30
2019-03-12T23:10:33.195Z,49.04
2019-03-12T23:13:00.515Z,48.98
2019-03-12T23:15:27.823Z,49.10
2019-03-12T23:17:55.285Z,49.46
2019-03-12T23:20:22.568Z,50.32
2019-03-12T23:22:52.152Z,50.45
2019-03-12T23:25:19.105Z,50.01
2019-03-12T23:27:46.301Z,49.88
2019-03-12T23:30:13.622Z,49.74
2019-03-12T23:32:40.998Z,49.87
2019-03-12T23:35:11.722Z,49.79
2019-03-12T23:37:39.059Z,49.91
2019-03-12T23:40:06.902Z,49.88
2019-03-12T23:42:34.159Z,50.26
2019-03-12T23:45:01.502Z,50.28
2019-03-12T23:47:29.164Z,50.30
2019-03-12T23:49:56.429Z,50.34
2019-03-12T23:52:23.866Z,50.27
2019-03-12T23:54:51.089Z,50.71
2019-03-12T23:57:18.354Z,50.52
2019-03-12T23:59:45.595Z,50.56
